Flight Track Log - Related Links

Times and Time Zones

All times are in EDT time to prevent confusion due to time zone crossing. See the AAL1681 flight status page for this flight to view local times or setup timezone preferences in your user account.

Time Position Orientation Groundspeed Altitude Reporting Facility
EDT Latitude Longitude Course Direction KTS MPH feet Rate Location/Type
Tue 08:31:06 PM 32.8833 -97.0500 180° South 155 178 1,300  Level Dallas / Fort Worth TRACON
Tue 08:32:18 PM 32.8167 -97.0500 180° South 238 274 3,600 2,577 Climbing Dallas / Fort Worth TRACON
Tue 08:33:35 PM 32.7422 -97.0536 182° South 239 275 7,700 2,978 Climbing Fort Worth Center
Tue 08:34:37 PM 32.6633 -97.0558 181° South 262 302 10,500 2,129 Climbing Fort Worth Center
Tue 08:35:39 PM 32.5733 -97.0556 180° South 324 373 12,100 1,984 Climbing Fort Worth Center
Tue 08:36:41 PM 32.4644 -97.0633 183° South 366 421 14,600 2,323 Climbing Fort Worth Center
Tue 08:37:43 PM 32.3556 -97.0783 187° South 392 451 16,900 2,208 Climbing Fort Worth Center
Tue 08:38:46 PM 32.2325 -97.0950 187° South 412 474 19,200 1,488 Climbing Fort Worth Center
Tue 08:39:48 PM 32.1156 -97.1058 184° South 426 490 20,000 387 Climbing Fort Worth Center
Tue 08:40:50 PM 31.9972 -97.1206 186° South 428 493 20,000  Level Fort Worth Center
Tue 08:41:52 PM 31.8833 -97.1361 187° South 428 493 20,000  Level Fort Worth Center
Tue 08:42:54 PM 31.7644 -97.1486 185° South 428 493 20,000  Level Fort Worth Center
Tue 08:43:56 PM 31.6208 -97.1664 186° South 429 494 20,000  Level Fort Worth Center
Tue 08:44:58 PM 31.5014 -97.1792 185° South 430 495 20,000 -194 Level Fort Worth Center
Tue 08:46:00 PM 31.3828 -97.1933 186° South 430 495 19,600 -1,161 Descending Fort Worth Center
Tue 08:47:02 PM 31.2664 -97.2058 185° South 424 488 17,600 -2,081 Descending Fort Worth Center
Tue 08:48:04 PM 31.1586 -97.2328 192° South 405 466 15,300 -1,872 Descending Fort Worth Center
Tue 08:49:07 PM 31.0333 -97.2822 199° South 401 461 13,700 -1,056 Descending Fort Worth Center
Tue 08:50:09 PM 30.9372 -97.3208 199° South 389 448 13,100 -372 Descending Fort Worth Center
Tue 08:51:00 PM 30.8592 -97.3475 196° South 379 436 13,000 -146 Descending Houston Center
Tue 08:51:31 PM 30.7997 -97.3708 199° South 377 434 12,900 -387 Descending Houston Center
Tue 08:52:02 PM 30.7572 -97.4094 218° Southwest 352 405 12,600 -716 Descending Houston Center
Tue 08:52:38 PM 30.7206 -97.4464 221° Southwest 287 330 12,100 -968 Descending Houston Center
Tue 08:53:04 PM 30.6983 -97.4708 223° Southwest 290 334 11,600 -1,574 Descending Houston Center
Tue 08:53:39 PM 30.6611 -97.5072 220° Southwest 268 308 10,500 -1,869 Descending Houston Center
Tue 08:54:05 PM 30.6400 -97.5300 223° Southwest 281 323 9,700 -2,066 Descending Houston Center
Tue 08:54:40 PM 30.5981 -97.5536 206° Southwest 281 323 8,400 -2,129 Descending Houston Center
Tue 08:55:07 PM 30.5731 -97.5683 207° Southwest 273 314 7,500 -2,300 Descending Houston Center
Tue 08:55:40 PM 30.5303 -97.5911 205° Southwest 264 304 6,100 -2,129 Descending Houston Center
Tue 08:56:09 PM 30.5053 -97.6042 204° Southwest 271 312 5,300 -1,475 Descending Houston Center
Tue 08:56:41 PM 30.4644 -97.6283 207° Southwest 264 304 4,600 -984 Descending Houston Center
Tue 08:57:10 PM 30.4397 -97.6400 202° Southwest 269 310 4,300 -689 Descending Houston Center
Tue 08:57:42 PM 30.3981 -97.6606 203° Southwest 245 282 3,900 -581 Descending Houston Center
Tue 08:58:12 PM 30.3819 -97.6703 208° Southwest 238 274 3,700 -885 Descending Houston Center
Tue 08:58:43 PM 30.3453 -97.6814 195° South 205 236 3,000 -1,161 Descending Houston Center
Tue 08:59:14 PM 30.3203 -97.6844 186° South 205 236 2,500 -1,000 Descending Houston Center
Tue 08:59:43 PM 30.2950 -97.6828 177° South 173 199 2,000 -871 Descending Houston Center
Tue 09:00:16 PM 30.2728 -97.6814 177° South 186 214 1,600 -689 Descending Houston Center
Tue 09:00:44 PM 30.2550 -97.6803 177° South 144 166 1,300 -590 Descending Houston Center
Tue 09:01:17 PM 30.2369 -97.6803 180° South 156 180 1,000 -655 Descending Houston Center
Tue 09:01:39 PM 30.2211 -97.6794 177° South 119 137 700 -97 Descending Houston Center
Tue 09:02:19 PM 30.2014 -97.6775 175° South 151 174 900 300 Climbing Houston Center

Login

Don't have an account? Register now (free) for customized features, flight alerts, and more!